Time;durP1;ratioP1;P1;durP2;ratioP2;P2;SDS_P1;SDS_P2;PMS_P1;PMS_P2;Temp;Humidity;BMP_temperature;BMP_pressure;BME280_temperature;BME280_humidity;BME280_pressure;Samples;Min_cycle;Max_cycle;Signal;HPM_P1;HPM_P2
2022/09/24 00:00:56;;;;;;;50.70;33.22;;;13.60;99.90;;;;;;5032219;28;20103;-63
2022/09/24 00:03:24;;;;;;;49.10;32.83;;;13.70;99.90;;;;;;5068816;28;20041;-64
2022/09/24 00:05:50;;;;;;;41.90;31.52;;;13.60;99.90;;;;;;5052671;28;20517;-64
2022/09/24 00:08:18;;;;;;;45.67;31.90;;;13.70;99.90;;;;;;5061415;28;20041;-63
2022/09/24 00:10:45;;;;;;;42.97;31.38;;;13.70;99.90;;;;;;5063186;28;20034;-64
2022/09/24 00:13:13;;;;;;;43.78;32.08;;;13.70;99.90;;;;;;5065857;28;20094;-64
2022/09/24 00:15:41;;;;;;;45.45;32.85;;;13.70;99.90;;;;;;5044290;28;20099;-64
2022/09/24 00:18:08;;;;;;;46.60;31.90;;;13.70;99.90;;;;;;5051205;28;20064;-64
2022/09/24 00:20:34;;;;;;;45.25;32.47;;;13.70;99.90;;;;;;5064617;28;20036;-64
2022/09/24 00:23:00;;;;;;;47.92;33.88;;;13.70;99.90;;;;;;5045437;28;20526;-64
2022/09/24 00:28:12;;;;;;;45.58;32.97;;;13.70;99.90;;;;;;5053204;28;20041;-64
2022/09/24 00:30:40;;;;;;;41.08;30.17;;;13.70;99.90;;;;;;5066548;28;20032;-64
2022/09/24 00:33:06;;;;;;;44.50;32.40;;;13.70;99.90;;;;;;5043548;28;20032;-64
2022/09/24 00:35:36;;;;;;;47.67;33.05;;;13.60;99.90;;;;;;5051718;28;20059;-64
2022/09/24 00:38:04;;;;;;;45.03;32.40;;;13.70;99.90;;;;;;5064324;28;20115;-64
2022/09/24 00:40:35;;;;;;;45.92;32.58;;;13.60;99.90;;;;;;5066136;28;20040;-64
2022/09/24 00:43:01;;;;;;;50.15;33.05;;;13.70;99.90;;;;;;5047139;28;20071;-64
2022/09/24 00:45:30;;;;;;;47.63;32.92;;;13.60;99.90;;;;;;5052245;28;20064;-64
2022/09/24 00:47:57;;;;;;;44.25;32.80;;;13.60;99.90;;;;;;5036068;28;20032;-64
2022/09/24 00:50:33;;;;;;;47.28;33.33;;;13.60;99.90;;;;;;5069105;28;20064;-64
2022/09/24 00:53:12;;;;;;;52.58;32.25;;;13.60;99.90;;;;;;5063389;28;20550;-64
2022/09/24 00:55:39;;;;;;;47.03;33.10;;;13.60;99.90;;;;;;5050566;28;20044;-64
2022/09/24 00:58:07;;;;;;;44.83;31.77;;;13.60;99.90;;;;;;5053127;28;20480;-64
2022/09/24 01:00:36;;;;;;;45.20;32.47;;;13.60;99.90;;;;;;5061934;28;20032;-64
2022/09/24 01:03:05;;;;;;;42.80;30.48;;;13.60;99.90;;;;;;5071023;28;20033;-64
2022/09/24 01:05:32;;;;;;;43.95;31.13;;;13.60;99.90;;;;;;5048422;28;20463;-64
2022/09/24 01:07:57;;;;;;;44.25;31.85;;;13.50;99.90;;;;;;5064929;28;20037;-64
2022/09/24 01:10:48;;;;;;;43.50;30.98;;;13.60;99.90;;;;;;5031773;28;20045;-64
2022/09/24 01:13:47;;;;;;;43.92;31.67;;;13.50;99.90;;;;;;5044883;28;20048;-64
2022/09/24 01:16:33;;;;;;;48.38;32.35;;;13.60;99.90;;;;;;5048365;28;20044;-64
2022/09/24 01:19:27;;;;;;;46.42;30.48;;;13.60;99.90;;;;;;5046788;28;20094;-65
2022/09/24 01:22:00;;;;;;;43.00;31.52;;;13.60;99.90;;;;;;5062708;28;20048;-65
2022/09/24 01:24:44;;;;;;;44.22;31.88;;;13.50;99.90;;;;;;5072613;28;20037;-65
2022/09/24 01:27:20;;;;;;;49.83;32.65;;;13.60;99.90;;;;;;5053684;28;20391;-65
2022/09/24 01:30:01;;;;;;;47.88;32.00;;;13.50;99.90;;;;;;5054834;28;20052;-63
2022/09/24 01:32:53;;;;;;;42.13;31.17;;;13.50;99.90;;;;;;5070157;28;20484;-63
2022/09/24 01:35:30;;;;;;;43.08;31.20;;;13.50;99.90;;;;;;5067594;28;20102;-65
2022/09/24 01:38:02;;;;;;;45.05;30.50;;;13.50;99.90;;;;;;5072426;28;20051;-63
2022/09/24 01:40:28;;;;;;;44.30;31.85;;;13.50;99.90;;;;;;5072335;28;20037;-62
2022/09/24 01:42:56;;;;;;;42.90;31.33;;;13.50;99.90;;;;;;5060526;28;20068;-65
2022/09/24 01:45:23;;;;;;;48.13;30.80;;;13.50;99.90;;;;;;5074402;28;20039;-65
2022/09/24 01:47:52;;;;;;;43.45;30.90;;;13.50;99.90;;;;;;5066575;28;20119;-65
2022/09/24 01:50:18;;;;;;;45.13;31.40;;;13.50;99.90;;;;;;5072735;28;20043;-65
2022/09/24 01:53:03;;;;;;;44.67;30.77;;;13.50;99.90;;;;;;5051927;28;20090;-65
2022/09/24 01:55:34;;;;;;;43.00;29.52;;;13.60;99.90;;;;;;5062723;28;20131;-65
2022/09/24 01:58:13;;;;;;;43.20;30.70;;;13.50;99.90;;;;;;5068370;28;20058;-62
2022/09/24 02:00:44;;;;;;;43.70;30.25;;;13.50;99.90;;;;;;5047775;28;20420;-65
2022/09/24 02:03:14;;;;;;;46.67;31.67;;;13.60;99.90;;;;;;5051958;28;20348;-65
2022/09/24 02:05:46;;;;;;;46.10;30.95;;;13.50;99.90;;;;;;5070980;28;20445;-62
2022/09/24 02:08:35;;;;;;;42.58;30.30;;;13.50;99.90;;;;;;5065371;28;20097;-65
2022/09/24 02:11:11;;;;;;;42.70;30.77;;;13.50;99.90;;;;;;5060895;28;20181;-65
2022/09/24 02:13:45;;;;;;;45.65;29.90;;;13.50;99.90;;;;;;5054068;28;20055;-65
2022/09/24 02:16:15;;;;;;;42.47;30.10;;;13.50;99.90;;;;;;5048302;28;20109;-65
2022/09/24 02:18:45;;;;;;;47.45;30.90;;;13.50;99.90;;;;;;5068962;28;20128;-64
2022/09/24 02:21:15;;;;;;;41.95;29.00;;;13.50;99.90;;;;;;5067342;28;20052;-64
2022/09/24 02:23:48;;;;;;;46.05;30.77;;;13.50;99.90;;;;;;5051780;28;20048;-63
2022/09/24 02:26:14;;;;;;;42.92;28.77;;;13.50;99.90;;;;;;5060045;28;20044;-65
2022/09/24 02:28:40;;;;;;;42.30;30.58;;;13.50;99.90;;;;;;5068157;28;20036;-65
2022/09/24 02:31:22;;;;;;;52.50;30.25;;;13.50;99.90;;;;;;5067046;28;20077;-65
2022/09/24 02:36:34;;;;;;;44.95;30.75;;;13.40;99.90;;;;;;5053221;28;20049;-65
2022/09/24 02:39:01;;;;;;;46.40;31.80;;;13.40;99.90;;;;;;5053669;28;20036;-65
2022/09/24 02:41:29;;;;;;;44.65;29.10;;;13.40;99.90;;;;;;5068478;28;20507;-64
2022/09/24 02:43:55;;;;;;;48.58;32.15;;;13.40;99.90;;;;;;5068963;28;20044;-63
2022/09/24 02:46:21;;;;;;;47.80;32.28;;;13.50;99.90;;;;;;5069476;28;20029;-65
2022/09/24 02:48:46;;;;;;;42.33;30.00;;;13.40;99.90;;;;;;5065991;28;20044;-65
2022/09/24 02:51:12;;;;;;;46.15;31.20;;;13.60;99.90;;;;;;5070228;28;20069;-65
2022/09/24 02:53:38;;;;;;;44.92;31.77;;;13.40;99.90;;;;;;5063756;28;20040;-63
2022/09/24 02:56:03;;;;;;;44.88;30.50;;;13.50;99.90;;;;;;5047888;28;20132;-62
2022/09/24 02:58:30;;;;;;;43.97;30.40;;;13.40;99.90;;;;;;5067687;28;20071;-65
2022/09/24 03:00:56;;;;;;;49.92;32.25;;;13.40;99.90;;;;;;5057338;28;20041;-61
2022/09/24 03:03:25;;;;;;;45.17;30.83;;;13.40;99.90;;;;;;5050468;28;20190;-66
2022/09/24 03:05:51;;;;;;;46.67;31.60;;;13.50;99.90;;;;;;5051162;28;20032;-65
2022/09/24 03:08:18;;;;;;;45.45;31.40;;;13.40;99.90;;;;;;5072640;28;20040;-65
2022/09/24 03:10:45;;;;;;;44.30;31.23;;;13.40;99.90;;;;;;5073356;28;20059;-64
2022/09/24 03:13:11;;;;;;;43.05;30.08;;;13.40;99.90;;;;;;5068214;28;20076;-65
2022/09/24 03:15:36;;;;;;;45.92;30.40;;;13.50;99.90;;;;;;5066239;28;20401;-65
2022/09/24 03:18:02;;;;;;;42.38;30.10;;;13.50;99.90;;;;;;5073928;28;20032;-63
2022/09/24 03:20:28;;;;;;;42.20;29.85;;;13.50;99.90;;;;;;5067307;28;20078;-64
2022/09/24 03:22:54;;;;;;;44.95;30.77;;;13.50;99.90;;;;;;5072609;28;20037;-65
2022/09/24 03:25:20;;;;;;;41.13;30.05;;;13.50;99.90;;;;;;5070450;28;20034;-65
2022/09/24 03:27:45;;;;;;;44.67;30.30;;;13.50;99.90;;;;;;5074827;28;20043;-65
2022/09/24 03:32:56;;;;;;;44.47;31.20;;;13.40;99.90;;;;;;5061674;28;20744;-63
2022/09/24 03:35:22;;;;;;;42.53;30.13;;;13.40;99.90;;;;;;5052602;28;20032;-65
2022/09/24 03:37:47;;;;;;;44.58;31.17;;;13.40;99.90;;;;;;5072184;28;20032;-65
2022/09/24 03:40:13;;;;;;;46.35;31.13;;;13.40;99.90;;;;;;5051351;28;20091;-64
2022/09/24 03:42:39;;;;;;;44.10;30.20;;;13.40;99.90;;;;;;5075575;28;20117;-63
2022/09/24 03:45:05;;;;;;;47.15;32.13;;;13.40;99.90;;;;;;5075605;28;20028;-65
2022/09/24 03:47:31;;;;;;;46.13;31.10;;;13.40;99.90;;;;;;5054907;28;20079;-63
2022/09/24 03:49:57;;;;;;;45.85;31.25;;;13.40;99.90;;;;;;5054645;28;20127;-63
2022/09/24 03:52:24;;;;;;;44.90;30.75;;;13.40;99.90;;;;;;5073500;28;20072;-63
2022/09/24 03:54:50;;;;;;;44.13;31.98;;;13.40;99.90;;;;;;5076098;28;20037;-63
2022/09/24 03:57:15;;;;;;;47.78;32.55;;;13.40;99.90;;;;;;5064792;28;20049;-64
2022/09/24 03:59:43;;;;;;;45.42;31.33;;;13.40;99.90;;;;;;5070976;28;20105;-63
2022/09/24 04:02:09;;;;;;;44.85;32.40;;;13.40;99.90;;;;;;5044696;28;20048;-65
2022/09/24 04:04:35;;;;;;;45.38;30.73;;;13.50;99.90;;;;;;5066521;28;20091;-62
2022/09/24 04:07:01;;;;;;;45.30;31.30;;;13.40;99.90;;;;;;5072625;28;20028;-65
2022/09/24 04:09:26;;;;;;;44.92;31.55;;;13.50;99.90;;;;;;5064591;28;20037;-65
2022/09/24 04:11:52;;;;;;;49.40;31.33;;;13.50;99.90;;;;;;5057031;28;20047;-65
2022/09/24 04:14:19;;;;;;;44.70;30.98;;;13.50;99.90;;;;;;5064025;28;20540;-64
2022/09/24 04:16:44;;;;;;;44.90;31.10;;;13.40;99.90;;;;;;5061638;28;20045;-65
2022/09/24 04:19:17;;;;;;;46.92;32.25;;;13.40;99.90;;;;;;5070350;28;20041;-65
2022/09/24 04:21:43;;;;;;;49.47;32.65;;;13.40;99.90;;;;;;5042976;28;20033;-65
2022/09/24 04:24:09;;;;;;;47.58;32.38;;;13.50;99.90;;;;;;5066765;28;20064;-61
2022/09/24 04:26:35;;;;;;;47.45;33.10;;;13.40;99.90;;;;;;5052069;28;20063;-65
2022/09/24 04:29:01;;;;;;;46.60;31.90;;;13.40;99.90;;;;;;5051342;28;20075;-65
2022/09/24 04:31:26;;;;;;;46.15;32.22;;;13.40;99.90;;;;;;5066850;28;20799;-65
2022/09/24 04:33:53;;;;;;;43.00;32.08;;;13.40;99.90;;;;;;5049013;28;20470;-61
2022/09/24 04:36:19;;;;;;;46.40;31.30;;;13.40;99.90;;;;;;5071312;28;20047;-64
2022/09/24 04:38:45;;;;;;;47.08;31.90;;;13.40;99.90;;;;;;5061319;28;20032;-64
2022/09/24 04:41:11;;;;;;;44.88;32.22;;;13.50;99.90;;;;;;5074624;28;20495;-64
2022/09/24 04:43:37;;;;;;;44.47;31.20;;;13.40;99.90;;;;;;5070547;28;20036;-64
2022/09/24 04:46:03;;;;;;;46.97;33.20;;;13.40;99.90;;;;;;5074185;28;20028;-64
2022/09/24 04:48:29;;;;;;;47.88;32.97;;;13.50;99.90;;;;;;5074994;28;20040;-64
2022/09/24 04:50:55;;;;;;;48.15;32.50;;;13.50;99.90;;;;;;5051189;28;20433;-65
2022/09/24 04:53:21;;;;;;;49.33;34.15;;;13.50;99.90;;;;;;5050315;28;20048;-61
2022/09/24 04:55:50;;;;;;;50.33;33.35;;;13.50;99.90;;;;;;5032283;28;20076;-66
2022/09/24 04:58:16;;;;;;;50.05;33.85;;;13.40;99.90;;;;;;5045526;28;20048;-65
2022/09/24 05:00:42;;;;;;;48.63;33.17;;;13.50;99.90;;;;;;5065969;28;20044;-65
2022/09/24 05:03:08;;;;;;;45.17;31.75;;;13.40;99.90;;;;;;5044902;28;20041;-66
2022/09/24 05:05:34;;;;;;;48.63;34.45;;;13.50;99.90;;;;;;5067956;28;20064;-61
2022/09/24 05:08:01;;;;;;;48.85;33.38;;;13.50;99.90;;;;;;5056921;28;20028;-66
2022/09/24 05:10:28;;;;;;;52.33;34.90;;;13.50;99.90;;;;;;5054023;28;20360;-65
2022/09/24 05:12:53;;;;;;;48.85;33.22;;;13.50;99.90;;;;;;5074522;28;20496;-65
2022/09/24 05:15:20;;;;;;;48.15;32.97;;;13.50;99.90;;;;;;5072814;28;20120;-63
2022/09/24 05:17:46;;;;;;;48.25;33.15;;;13.50;99.90;;;;;;5072897;28;20037;-65
2022/09/24 05:20:15;;;;;;;48.97;33.83;;;13.50;99.90;;;;;;5074358;28;20032;-66
2022/09/24 05:22:42;;;;;;;46.30;32.17;;;13.50;99.90;;;;;;5061525;28;20037;-65
2022/09/24 05:25:08;;;;;;;45.15;31.90;;;13.50;99.90;;;;;;5073898;28;20037;-64
2022/09/24 05:27:34;;;;;;;47.33;32.03;;;13.50;99.90;;;;;;5024406;28;20090;-64
2022/09/24 05:30:00;;;;;;;45.63;32.83;;;13.50;99.90;;;;;;5069000;28;20047;-64
2022/09/24 05:32:26;;;;;;;44.45;31.95;;;13.50;99.90;;;;;;5044719;28;20131;-64
2022/09/24 05:34:52;;;;;;;45.55;31.48;;;13.50;99.90;;;;;;5069458;28;20044;-64
2022/09/24 05:37:18;;;;;;;46.15;31.83;;;13.50;99.90;;;;;;5070016;28;20311;-64
2022/09/24 05:39:44;;;;;;;43.20;32.00;;;13.50;99.90;;;;;;5069623;28;20071;-64
2022/09/24 05:42:12;;;;;;;44.67;32.13;;;13.50;99.90;;;;;;5048875;28;20131;-64
2022/09/24 05:44:38;;;;;;;39.67;28.42;;;13.60;99.90;;;;;;5042406;28;20049;-64
2022/09/24 05:47:04;;;;;;;43.95;31.80;;;13.60;99.90;;;;;;5063555;28;20086;-64
2022/09/24 05:49:30;;;;;;;47.00;30.38;;;13.60;99.90;;;;;;5036838;28;20041;-64
2022/09/24 05:51:56;;;;;;;42.50;30.92;;;13.60;99.90;;;;;;5061105;28;20079;-64
2022/09/24 05:54:22;;;;;;;46.75;30.63;;;13.50;99.90;;;;;;5043721;28;20378;-64
2022/09/24 05:56:48;;;;;;;43.80;30.13;;;13.60;99.90;;;;;;5066018;28;20117;-64
2022/09/24 05:59:14;;;;;;;42.05;29.70;;;13.60;99.90;;;;;;5043892;28;20219;-64
2022/09/24 06:01:40;;;;;;;42.47;29.23;;;13.60;99.90;;;;;;5065183;28;20381;-64
2022/09/24 06:04:06;;;;;;;38.08;28.75;;;13.60;99.90;;;;;;5058911;28;20037;-64
2022/09/24 06:06:31;;;;;;;44.20;30.00;;;13.60;99.90;;;;;;5068508;28;20032;-64
2022/09/24 06:08:57;;;;;;;40.53;29.05;;;13.60;99.90;;;;;;5045964;28;20081;-64
2022/09/24 06:11:24;;;;;;;41.40;29.08;;;13.60;99.90;;;;;;5058886;28;20028;-64
2022/09/24 06:13:50;;;;;;;39.92;28.27;;;13.60;99.90;;;;;;5047394;28;20036;-64
2022/09/24 06:16:16;;;;;;;40.88;28.00;;;13.60;99.90;;;;;;5050105;28;20052;-64
2022/09/24 06:18:43;;;;;;;40.03;28.77;;;13.60;99.90;;;;;;5053774;28;20056;-64
2022/09/24 06:21:14;;;;;;;36.95;26.58;;;13.60;99.90;;;;;;5063628;28;20124;-64
2022/09/24 06:23:40;;;;;;;39.83;26.75;;;13.60;99.90;;;;;;5062129;28;20064;-64
2022/09/24 06:26:09;;;;;;;37.60;26.67;;;13.60;99.90;;;;;;5035414;28;20044;-64
2022/09/24 06:28:36;;;;;;;40.45;26.75;;;13.60;99.90;;;;;;5062813;28;20029;-64
2022/09/24 06:31:03;;;;;;;39.58;26.80;;;13.60;99.90;;;;;;5066875;28;20041;-64
2022/09/24 06:33:29;;;;;;;41.10;26.35;;;13.70;99.90;;;;;;5061073;28;20082;-64
2022/09/24 06:35:58;;;;;;;38.58;26.48;;;13.70;99.90;;;;;;5068950;28;20044;-64
2022/09/24 06:38:24;;;;;;;40.70;27.02;;;13.70;99.90;;;;;;5041534;28;20048;-64
2022/09/24 06:40:49;;;;;;;40.88;26.35;;;13.70;99.90;;;;;;5051955;28;20048;-64
2022/09/24 06:43:16;;;;;;;40.03;26.73;;;13.70;99.90;;;;;;5031319;28;20060;-64
2022/09/24 06:45:43;;;;;;;36.65;26.33;;;13.70;99.90;;;;;;5070909;28;20037;-64
2022/09/24 06:48:11;;;;;;;40.25;27.55;;;13.70;99.90;;;;;;5065986;28;20037;-64
2022/09/24 06:50:40;;;;;;;37.28;25.73;;;13.70;99.90;;;;;;5051511;28;20049;-64
2022/09/24 06:53:09;;;;;;;38.25;25.23;;;13.70;99.90;;;;;;5036852;28;20044;-64
2022/09/24 06:55:35;;;;;;;36.20;24.08;;;13.70;99.90;;;;;;5055003;28;20546;-64
2022/09/24 06:58:12;;;;;;;35.78;24.75;;;13.70;99.90;;;;;;5042989;28;20036;-64
2022/09/24 07:00:38;;;;;;;37.85;25.70;;;13.70;99.90;;;;;;5065908;28;20516;-64
2022/09/24 07:03:05;;;;;;;37.25;25.30;;;13.60;99.90;;;;;;5065251;28;20063;-64
2022/09/24 07:05:34;;;;;;;39.78;25.52;;;13.70;99.90;;;;;;5059924;28;20036;-64
2022/09/24 07:08:00;;;;;;;35.67;25.23;;;13.70;99.90;;;;;;5058413;28;20033;-64
2022/09/24 07:10:26;;;;;;;36.10;24.70;;;13.70;99.90;;;;;;5043998;28;20124;-64
2022/09/24 07:12:52;;;;;;;34.10;23.10;;;13.70;99.90;;;;;;5056266;28;20236;-64
2022/09/24 07:15:18;;;;;;;36.97;23.90;;;13.70;99.90;;;;;;5043353;28;20319;-64
2022/09/24 07:17:43;;;;;;;34.63;24.48;;;13.70;99.90;;;;;;5055743;28;20493;-64
2022/09/24 07:20:09;;;;;;;36.53;24.13;;;13.70;99.90;;;;;;5056117;28;20040;-64
2022/09/24 07:22:39;;;;;;;36.40;24.45;;;13.70;99.90;;;;;;5060794;28;20033;-64
2022/09/24 07:25:10;;;;;;;35.65;23.35;;;13.80;99.90;;;;;;5040897;28;20072;-64
2022/09/24 07:27:37;;;;;;;35.97;24.37;;;13.80;99.90;;;;;;5041211;28;20052;-64
2022/09/24 07:30:05;;;;;;;36.35;22.95;;;13.70;99.90;;;;;;5057153;28;20377;-63
2022/09/24 07:32:31;;;;;;;37.08;24.42;;;13.70;99.90;;;;;;5038851;28;20052;-63
2022/09/24 07:34:56;;;;;;;38.47;24.50;;;13.80;99.90;;;;;;5071455;28;20353;-64
2022/09/24 07:37:22;;;;;;;35.55;24.13;;;13.80;99.90;;;;;;5053679;28;20137;-64
2022/09/24 07:39:47;;;;;;;35.28;22.70;;;13.80;99.90;;;;;;5045514;28;20071;-63
2022/09/24 07:42:13;;;;;;;27.90;18.73;;;13.80;99.90;;;;;;5067838;28;20044;-63
2022/09/24 07:44:39;;;;;;;18.50;12.13;;;13.80;99.90;;;;;;5071600;28;20634;-63
2022/09/24 07:47:05;;;;;;;18.00;11.88;;;13.80;99.90;;;;;;5070201;28;20044;-63
2022/09/24 07:49:31;;;;;;;18.95;13.48;;;13.80;99.90;;;;;;5060845;28;20037;-63
2022/09/24 07:51:58;;;;;;;18.83;13.48;;;13.80;99.90;;;;;;5040082;28;20067;-63
2022/09/24 07:54:23;;;;;;;21.15;13.98;;;13.80;99.90;;;;;;5041270;28;20044;-63
2022/09/24 07:56:49;;;;;;;20.33;13.75;;;13.80;99.90;;;;;;5055931;28;20279;-63
2022/09/24 07:59:15;;;;;;;20.58;14.43;;;13.80;99.90;;;;;;5060414;28;20036;-63
2022/09/24 08:01:40;;;;;;;21.25;14.73;;;13.90;99.90;;;;;;5059731;28;20056;-63
2022/09/24 08:04:06;;;;;;;20.83;14.75;;;13.90;99.90;;;;;;5059385;28;20109;-63
2022/09/24 08:06:34;;;;;;;20.38;14.68;;;13.90;99.90;;;;;;5060258;28;20032;-63
2022/09/24 08:09:01;;;;;;;19.27;13.82;;;14.00;99.90;;;;;;5060667;28;20032;-63
2022/09/24 08:11:26;;;;;;;23.13;15.90;;;14.00;99.90;;;;;;5058984;28;20040;-63
2022/09/24 08:13:53;;;;;;;22.00;15.60;;;14.00;99.90;;;;;;5057579;28;20036;-63
2022/09/24 08:16:20;;;;;;;22.08;14.75;;;14.10;99.90;;;;;;5040178;28;20072;-64
2022/09/24 08:18:46;;;;;;;22.15;15.70;;;14.10;99.90;;;;;;5062453;28;20072;-63
2022/09/24 08:21:14;;;;;;;23.33;16.05;;;14.20;99.90;;;;;;5045215;28;20118;-63
2022/09/24 08:23:41;;;;;;;23.98;16.73;;;14.20;99.90;;;;;;5058434;28;20079;-63
2022/09/24 08:26:08;;;;;;;22.35;15.75;;;14.30;99.90;;;;;;5057499;28;20064;-63
2022/09/24 08:28:33;;;;;;;21.55;13.55;;;14.30;99.90;;;;;;5038016;28;20060;-63
2022/09/24 08:31:00;;;;;;;20.95;14.23;;;14.30;99.90;;;;;;5052261;28;20074;-63
2022/09/24 08:33:27;;;;;;;19.25;13.88;;;14.30;99.90;;;;;;5058510;28;20043;-63
2022/09/24 08:35:53;;;;;;;18.48;12.73;;;14.30;99.90;;;;;;5056551;28;20498;-63
2022/09/24 08:38:21;;;;;;;17.92;12.73;;;14.40;99.90;;;;;;5037185;28;20153;-63
2022/09/24 08:41:06;;;;;;;19.65;13.05;;;14.30;99.90;;;;;;5053992;28;20493;-63
2022/09/24 08:43:56;;;;;;;17.55;11.98;;;14.40;99.90;;;;;;5041718;28;20395;-63
2022/09/24 08:49:21;;;;;;;16.45;10.63;;;14.40;99.90;;;;;;5054626;28;20049;-63
2022/09/24 08:52:24;;;;;;;15.45;10.35;;;14.50;99.90;;;;;;5064906;28;20488;-63
2022/09/24 08:54:51;;;;;;;14.90;9.43;;;14.50;99.90;;;;;;5025911;28;20044;-63
2022/09/24 08:57:19;;;;;;;13.95;10.32;;;14.50;99.90;;;;;;5065601;28;20064;-63
2022/09/24 08:59:50;;;;;;;16.52;9.30;;;14.50;99.90;;;;;;5039471;28;20130;-63
2022/09/24 09:02:52;;;;;;;14.23;8.97;;;14.60;99.90;;;;;;5064393;28;20131;-63
2022/09/24 09:05:49;;;;;;;15.75;9.32;;;14.60;99.90;;;;;;5063269;28;20033;-63
2022/09/24 09:08:38;;;;;;;13.25;7.72;;;14.70;99.90;;;;;;5052123;28;20049;-63
2022/09/24 09:11:06;;;;;;;10.75;6.45;;;14.70;99.90;;;;;;4998503;28;20094;-62
2022/09/24 09:13:40;;;;;;;15.82;7.60;;;14.80;99.90;;;;;;5054694;28;20044;-62
2022/09/24 09:16:23;;;;;;;14.60;7.43;;;14.80;99.90;;;;;;5064163;28;20494;-63
2022/09/24 09:18:52;;;;;;;11.85;6.80;;;14.90;99.90;;;;;;5061154;28;20124;-63
2022/09/24 09:21:35;;;;;;;12.45;6.05;;;14.90;99.90;;;;;;5063194;28;20040;-63
2022/09/24 09:24:03;;;;;;;8.65;5.30;;;14.90;99.90;;;;;;5043742;28;20048;-63
2022/09/24 09:26:30;;;;;;;11.00;5.78;;;14.90;99.90;;;;;;5058641;28;20048;-62
2022/09/24 09:28:59;;;;;;;9.95;5.75;;;14.90;99.90;;;;;;5065712;28;20083;-63
2022/09/24 09:31:43;;;;;;;12.43;5.30;;;14.90;99.90;;;;;;5047958;28;20093;-63
2022/09/24 09:34:27;;;;;;;12.45;5.03;;;14.80;99.90;;;;;;5068926;28;20074;-63
2022/09/24 09:37:04;;;;;;;12.40;5.03;;;14.80;99.90;;;;;;5045399;28;20044;-64
2022/09/24 09:39:48;;;;;;;12.52;5.07;;;14.80;99.90;;;;;;5047902;28;20502;-64
2022/09/24 09:42:25;;;;;;;12.15;4.78;;;14.80;99.90;;;;;;5068950;28;20040;-63
2022/09/24 09:44:52;;;;;;;9.02;4.10;;;14.80;99.90;;;;;;5047752;28;20037;-64
2022/09/24 09:47:41;;;;;;;11.80;4.47;;;14.80;99.90;;;;;;5067764;28;20044;-64
2022/09/24 09:50:27;;;;;;;7.45;3.38;;;14.90;99.90;;;;;;5059279;28;20399;-63
2022/09/24 09:52:53;;;;;;;6.80;2.17;;;14.90;99.90;;;;;;5065640;28;20068;-63
2022/09/24 09:55:28;;;;;;;8.25;2.15;;;14.90;99.90;;;;;;5045952;28;20046;-64
2022/09/24 09:58:14;;;;;;;8.77;1.80;;;14.90;99.90;;;;;;5069866;28;20068;-64
2022/09/24 10:00:40;;;;;;;10.07;1.88;;;14.90;99.90;;;;;;5051463;28;20044;-64
2022/09/24 10:03:19;;;;;;;8.73;2.03;;;14.90;99.90;;;;;;5061534;28;20086;-64
2022/09/24 10:05:55;;;;;;;6.97;2.55;;;14.90;99.90;;;;;;5068450;28;20043;-64
2022/09/24 10:08:22;;;;;;;7.07;1.85;;;15.00;99.90;;;;;;5045604;28;20090;-63
2022/09/24 10:10:57;;;;;;;6.88;1.80;;;15.00;99.90;;;;;;5060895;28;20041;-64
2022/09/24 10:13:23;;;;;;;7.25;1.85;;;15.00;99.90;;;;;;5047569;28;20080;-64
2022/09/24 10:15:58;;;;;;;5.53;1.70;;;15.00;99.90;;;;;;5073082;28;20071;-65
2022/09/24 10:18:29;;;;;;;5.78;1.73;;;15.00;99.90;;;;;;5053322;28;20094;-65
2022/09/24 10:20:56;;;;;;;6.05;1.80;;;15.00;99.90;;;;;;5069413;28;20051;-65
2022/09/24 10:23:43;;;;;;;9.32;1.85;;;15.00;99.90;;;;;;5071501;28;20040;-65
2022/09/24 10:26:09;;;;;;;5.78;1.58;;;15.00;99.90;;;;;;5067465;28;20093;-65
2022/09/24 10:31:29;;;;;;;;;;;15.00;99.90;;;;;;5069229;28;20045;-62
2022/09/24 10:33:57;;;;;;;8.10;1.90;;;15.00;99.90;;;;;;5071665;28;20027;-66
2022/09/24 10:36:26;;;;;;;6.57;2.00;;;15.10;99.90;;;;;;5064252;28;20116;-65
2022/09/24 10:39:03;;;;;;;7.10;1.75;;;15.10;99.90;;;;;;5063781;28;20443;-62
2022/09/24 10:41:30;;;;;;;8.93;2.28;;;15.10;99.90;;;;;;5068865;28;20527;-63
2022/09/24 10:44:01;;;;;;;10.57;1.83;;;15.10;99.90;;;;;;5072960;28;20079;-65
2022/09/24 10:47:11;;;;;;;9.30;1.92;;;15.10;99.90;;;;;;5065702;28;20037;-65
2022/09/24 10:49:43;;;;;;;10.35;1.90;;;15.10;99.90;;;;;;5063342;28;20090;-65
2022/09/24 10:52:22;;;;;;;8.45;1.83;;;15.00;99.90;;;;;;5055339;28;20048;-65
2022/09/24 10:55:06;;;;;;;9.05;1.90;;;15.00;99.90;;;;;;5064026;28;20033;-66
2022/09/24 10:58:24;;;;;;;14.52;2.50;;;15.00;99.90;;;;;;5070055;28;20492;-65
2022/09/24 11:00:57;;;;;;;9.85;2.20;;;15.00;99.90;;;;;;4992250;28;20345;-66
2022/09/24 11:03:47;;;;;;;10.75;2.78;;;15.10;99.90;;;;;;5043173;28;20047;-66
2022/09/24 11:06:36;;;;;;;7.00;1.70;;;15.10;99.90;;;;;;5043506;28;20094;-63
2022/09/24 11:09:36;;;;;;;9.18;2.08;;;15.10;99.90;;;;;;5059808;28;20068;-61
2022/09/24 11:12:26;;;;;;;8.07;2.15;;;15.10;99.90;;;;;;5020061;28;20049;-65
2022/09/24 11:14:58;;;;;;;7.47;1.92;;;15.10;99.90;;;;;;5038636;28;20506;-65
2022/09/24 11:17:42;;;;;;;7.75;1.70;;;15.20;99.90;;;;;;5055807;28;20370;-62
2022/09/24 11:20:31;;;;;;;9.48;2.05;;;15.20;99.90;;;;;;5048460;28;20054;-65
2022/09/24 11:23:35;;;;;;;10.20;2.17;;;15.30;99.90;;;;;;5054010;28;20077;-63
2022/09/24 11:26:26;;;;;;;6.40;1.40;;;15.30;99.90;;;;;;5082923;22;20098;-79
2022/09/24 11:29:03;;;;;;;7.68;1.80;;;15.40;99.90;;;;;;5067992;28;20039;-80
2022/09/24 11:31:48;;;;;;;7.18;1.50;;;15.40;99.90;;;;;;5065454;28;20024;-80
2022/09/24 11:34:22;;;;;;;7.35;1.83;;;15.50;99.90;;;;;;5053223;28;20103;-79
2022/09/24 11:36:54;;;;;;;6.50;1.50;;;15.60;99.90;;;;;;5052229;28;20049;-79
2022/09/24 11:39:35;;;;;;;7.68;1.85;;;15.50;99.90;;;;;;5028053;28;20406;-79
2022/09/24 11:42:21;;;;;;;4.80;1.43;;;15.50;99.90;;;;;;5042921;28;20033;-82
2022/09/24 11:45:15;;;;;;;4.78;1.63;;;15.60;99.90;;;;;;5028360;28;20041;-76
2022/09/24 11:48:00;;;;;;;4.75;1.70;;;15.60;99.90;;;;;;5047810;28;20390;-80
2022/09/24 11:50:32;;;;;;;5.72;1.40;;;15.60;99.90;;;;;;5048865;28;20041;-80
2022/09/24 11:53:31;;;;;;;3.50;1.08;;;15.70;99.90;;;;;;5018147;28;20045;-77
2022/09/24 11:56:22;;;;;;;4.47;1.30;;;15.70;99.90;;;;;;5050250;28;20045;-78
2022/09/24 11:59:01;;;;;;;5.10;1.15;;;15.70;99.90;;;;;;5052162;28;20045;-77
2022/09/24 12:01:34;;;;;;;2.85;1.17;;;15.70;99.90;;;;;;5047936;28;20063;-78
2022/09/24 12:04:10;;;;;;;6.88;1.60;;;15.70;99.90;;;;;;5048945;28;20037;-80
2022/09/24 12:06:44;;;;;;;4.38;1.40;;;15.70;99.90;;;;;;5047486;28;20045;-78
2022/09/24 12:09:31;;;;;;;4.13;1.40;;;15.70;99.90;;;;;;5051987;28;20119;-76
2022/09/24 12:12:06;;;;;;;4.85;1.70;;;15.70;99.90;;;;;;5051166;28;20042;-79
2022/09/24 12:15:01;;;;;;;5.78;1.90;;;15.70;99.90;;;;;;5050941;28;20576;-79
2022/09/24 12:17:40;;;;;;;4.05;1.65;;;15.70;99.90;;;;;;5042210;28;20041;-86
2022/09/24 12:20:19;;;;;;;6.85;2.50;;;15.70;99.90;;;;;;5030555;28;20037;-83
2022/09/24 12:22:49;;;;;;;7.18;2.40;;;15.70;99.90;;;;;;5044007;28;20155;-83
2022/09/24 12:25:15;;;;;;;6.85;1.50;;;15.70;99.90;;;;;;5045445;28;20041;-82
2022/09/24 12:27:43;;;;;;;7.00;1.70;;;15.60;99.90;;;;;;5043812;28;20114;-82
2022/09/24 12:33:26;;;;;;;12.70;2.45;;;15.60;99.90;;;;;;5049022;28;20111;-80
2022/09/24 12:36:07;;;;;;;;;;;15.60;99.90;;;;;;5034177;28;20414;-80
2022/09/24 12:38:46;;;;;;;4.00;1.45;;;15.60;99.90;;;;;;5046065;28;19924;-78
2022/09/24 12:41:32;;;;;;;5.72;1.35;;;15.60;99.90;;;;;;5052322;28;20069;-80
2022/09/24 12:44:10;;;;;;;3.42;1.10;;;15.60;99.90;;;;;;5051750;28;20533;-78
2022/09/24 12:46:39;;;;;;;3.92;1.30;;;15.50;99.90;;;;;;5052566;28;20048;-77
2022/09/24 12:49:15;;;;;;;2.80;1.02;;;15.60;99.90;;;;;;5052295;28;20036;-80
2022/09/24 12:51:41;;;;;;;4.53;1.10;;;15.60;99.90;;;;;;5044209;28;20445;-80
2022/09/24 12:54:29;;;;;;;7.00;1.20;;;15.50;99.90;;;;;;5033351;28;20033;-78
2022/09/24 12:57:19;;;;;;;4.13;1.02;;;15.60;99.90;;;;;;5056626;28;20069;-80
2022/09/24 12:59:55;;;;;;;3.35;1.13;;;15.60;99.90;;;;;;5047038;28;20044;-81
2022/09/24 13:02:22;;;;;;;4.03;1.30;;;15.60;99.90;;;;;;5048666;28;20063;-81
2022/09/24 13:05:14;;;;;;;2.60;0.95;;;15.70;99.90;;;;;;5039186;28;20041;-81
2022/09/24 13:07:40;;;;;;;3.35;1.05;;;15.70;99.90;;;;;;5067445;28;20399;-81
2022/09/24 13:10:15;;;;;;;4.57;1.17;;;15.60;99.90;;;;;;5036924;28;20094;-78
2022/09/24 13:12:41;;;;;;;4.32;0.88;;;15.70;99.90;;;;;;5040271;28;20045;-80